Time;durP1;ratioP1;P1;durP2;ratioP2;P2;SDS_P1;SDS_P2;PMS_P1;PMS_P2;Temp;Humidity;BMP_temperature;BMP_pressure;BME280_temperature;BME280_humidity;BME280_pressure;Samples;Min_cycle;Max_cycle;Signal;HPM_P1;HPM_P2
2023/06/03 00:01:21;;;;;;;3.88;1.70;;;17.80;69.70;;;;;;5120402;27;45249;-68
2023/06/03 00:03:48;;;;;;;4.38;1.85;;;17.90;69.80;;;;;;5120173;27;45516;-68
2023/06/03 00:06:15;;;;;;;5.90;1.60;;;17.90;69.50;;;;;;5119562;27;46583;-67
2023/06/03 00:08:43;;;;;;;7.05;2.10;;;18.00;69.70;;;;;;5117301;27;45350;-67
2023/06/03 00:11:11;;;;;;;7.18;1.65;;;18.10;70.10;;;;;;5120255;27;45341;-67
2023/06/03 00:13:38;;;;;;;8.15;2.28;;;18.00;69.60;;;;;;5120992;27;45650;-69
2023/06/03 00:16:05;;;;;;;7.50;1.98;;;18.00;70.10;;;;;;5117934;27;46532;-68
2023/06/03 00:18:33;;;;;;;3.88;1.80;;;18.00;70.30;;;;;;5119035;27;45380;-68
2023/06/03 00:21:01;;;;;;;4.28;2.00;;;17.90;71.00;;;;;;5122688;27;45488;-68
2023/06/03 00:23:28;;;;;;;6.72;1.88;;;17.90;70.30;;;;;;5116484;27;45427;-68
2023/06/03 00:25:55;;;;;;;6.55;1.73;;;17.70;70.50;;;;;;5124331;27;47052;-67
2023/06/03 00:28:21;;;;;;;9.07;2.22;;;17.50;70.80;;;;;;5122972;27;45363;-67
2023/06/03 00:30:48;;;;;;;6.88;1.90;;;17.40;71.60;;;;;;5118134;27;45420;-67
2023/06/03 00:33:15;;;;;;;5.68;2.00;;;17.40;71.30;;;;;;5116477;27;45519;-67
2023/06/03 00:35:43;;;;;;;8.88;2.45;;;17.30;71.80;;;;;;5113159;27;46197;-68
2023/06/03 00:38:10;;;;;;;6.20;2.17;;;17.30;71.60;;;;;;5120297;27;45368;-67
2023/06/03 00:40:37;;;;;;;6.80;2.40;;;17.30;71.70;;;;;;5119148;27;45555;-67
2023/06/03 00:43:04;;;;;;;6.60;2.15;;;17.30;71.70;;;;;;5122267;27;45370;-68
2023/06/03 00:45:31;;;;;;;6.00;1.88;;;17.30;71.70;;;;;;5118199;27;46542;-67
2023/06/03 00:47:57;;;;;;;6.53;2.15;;;17.30;71.80;;;;;;5114928;27;45322;-67
2023/06/03 00:50:24;;;;;;;7.97;2.40;;;17.20;72.20;;;;;;5125320;27;45415;-67
2023/06/03 00:52:53;;;;;;;10.05;2.10;;;17.20;72.50;;;;;;5116836;27;45353;-67
2023/06/03 00:55:20;;;;;;;8.40;2.25;;;17.20;72.30;;;;;;5116063;27;46338;-67
2023/06/03 00:57:46;;;;;;;6.22;1.92;;;17.20;73.00;;;;;;5114821;27;45380;-67
2023/06/03 01:00:13;;;;;;;6.68;2.15;;;17.20;72.20;;;;;;5124469;27;45497;-67
2023/06/03 01:02:43;;;;;;;5.90;2.08;;;17.20;72.70;;;;;;5123467;27;45497;-67
2023/06/03 01:05:11;;;;;;;8.10;2.40;;;17.10;72.60;;;;;;5123677;27;45554;-67
2023/06/03 01:07:46;;;;;;;7.43;2.42;;;17.10;72.90;;;;;;5122318;27;45339;-67
2023/06/03 01:10:22;;;;;;;4.68;1.83;;;17.10;72.80;;;;;;5116449;27;45314;-66
2023/06/03 01:12:58;;;;;;;10.63;2.15;;;17.10;72.70;;;;;;5116721;27;45376;-67
2023/06/03 01:15:27;;;;;;;7.57;2.03;;;17.10;72.50;;;;;;5123868;27;47414;-67
2023/06/03 01:17:57;;;;;;;5.00;2.42;;;17.10;72.90;;;;;;5123034;27;45413;-67
2023/06/03 01:20:26;;;;;;;5.80;2.03;;;17.10;72.60;;;;;;5118463;27;45363;-66
2023/06/03 01:22:58;;;;;;;6.80;2.22;;;17.10;72.70;;;;;;5120789;27;45467;-67
2023/06/03 01:25:26;;;;;;;6.57;2.20;;;17.10;72.40;;;;;;5123508;27;48142;-67
2023/06/03 01:27:57;;;;;;;9.48;2.17;;;17.10;73.30;;;;;;5122070;27;45216;-68
2023/06/03 01:30:24;;;;;;;6.70;2.40;;;17.10;72.70;;;;;;5123297;27;45313;-67
2023/06/03 01:32:52;;;;;;;3.30;1.50;;;17.00;72.90;;;;;;5120639;27;45268;-67
2023/06/03 01:35:19;;;;;;;5.45;2.10;;;17.00;72.50;;;;;;5120888;27;46406;-67
2023/06/03 01:37:46;;;;;;;9.45;2.30;;;17.10;72.60;;;;;;5119223;27;45300;-67
2023/06/03 01:40:14;;;;;;;4.90;2.35;;;17.00;72.70;;;;;;5124138;27;45551;-67
2023/06/03 01:42:42;;;;;;;11.50;2.15;;;17.00;73.60;;;;;;5115304;27;45370;-68
2023/06/03 01:45:09;;;;;;;7.30;1.95;;;17.00;72.80;;;;;;5122270;27;47530;-67
2023/06/03 01:47:36;;;;;;;6.95;1.98;;;17.00;72.50;;;;;;5120846;27;45439;-67
2023/06/03 01:50:03;;;;;;;8.73;2.20;;;16.90;73.00;;;;;;5117966;27;45648;-67
2023/06/03 01:52:30;;;;;;;5.72;1.98;;;16.90;73.00;;;;;;5115564;27;45398;-67
2023/06/03 01:54:56;;;;;;;11.02;2.13;;;16.90;73.10;;;;;;5114256;27;47514;-67
2023/06/03 01:57:23;;;;;;;4.22;2.10;;;16.90;73.00;;;;;;5122149;27;45325;-67
2023/06/03 01:59:52;;;;;;;6.70;2.33;;;16.90;73.30;;;;;;5116433;27;45374;-68
2023/06/03 02:02:19;;;;;;;6.10;2.33;;;16.90;73.40;;;;;;5120165;27;45421;-67
2023/06/03 02:04:46;;;;;;;11.18;2.40;;;16.90;73.20;;;;;;5115079;27;47674;-67
2023/06/03 02:07:13;;;;;;;6.45;1.80;;;16.90;73.30;;;;;;5123265;27;45362;-67
2023/06/03 02:09:40;;;;;;;5.25;2.17;;;16.90;73.60;;;;;;5121827;27;45350;-68
2023/06/03 02:12:08;;;;;;;8.23;2.22;;;16.80;73.50;;;;;;5123259;27;45677;-67
2023/06/03 02:14:36;;;;;;;4.25;1.80;;;16.80;74.00;;;;;;5123543;27;46407;-67
2023/06/03 02:17:06;;;;;;;5.10;2.30;;;16.80;74.80;;;;;;5114504;27;45699;-67
2023/06/03 02:19:32;;;;;;;6.30;1.92;;;16.90;74.30;;;;;;5125269;27;45429;-67
2023/06/03 02:21:59;;;;;;;5.22;2.13;;;17.00;73.50;;;;;;5115380;27;45569;-68
2023/06/03 02:24:28;;;;;;;10.77;2.40;;;17.10;73.30;;;;;;5120199;27;48899;-67
2023/06/03 02:27:00;;;;;;;9.48;2.38;;;17.10;73.60;;;;;;5115912;27;45281;-67
2023/06/03 02:29:27;;;;;;;9.00;2.72;;;17.10;73.30;;;;;;5122013;27;45417;-67
2023/06/03 02:31:55;;;;;;;7.38;2.28;;;17.10;73.20;;;;;;5123101;27;45458;-67
2023/06/03 02:34:23;;;;;;;6.03;2.20;;;17.10;73.60;;;;;;5121864;27;46097;-68
2023/06/03 02:36:50;;;;;;;6.03;2.08;;;17.10;73.10;;;;;;5113827;27;45430;-67
2023/06/03 02:39:18;;;;;;;4.43;1.85;;;17.10;73.10;;;;;;5111339;27;45348;-68
2023/06/03 02:41:46;;;;;;;8.77;1.92;;;17.10;73.10;;;;;;5114741;27;45320;-67
2023/06/03 02:44:13;;;;;;;5.32;2.10;;;17.20;72.60;;;;;;5111075;27;46343;-67
2023/06/03 02:46:40;;;;;;;6.00;2.25;;;17.20;72.60;;;;;;5121966;27;45375;-67
2023/06/03 02:49:08;;;;;;;11.20;2.35;;;17.10;72.30;;;;;;5123521;27;45426;-67
2023/06/03 02:51:37;;;;;;;7.97;2.08;;;17.20;72.50;;;;;;5124216;27;45498;-67
2023/06/03 02:54:04;;;;;;;5.82;2.28;;;17.10;72.10;;;;;;5121133;27;45475;-67
2023/06/03 02:56:30;;;;;;;7.82;2.38;;;17.10;72.40;;;;;;5124123;27;45331;-67
2023/06/03 02:58:57;;;;;;;7.43;2.10;;;17.10;72.30;;;;;;5123182;27;45375;-67
2023/06/03 03:01:25;;;;;;;5.85;1.80;;;17.10;72.10;;;;;;5117369;27;45237;-68
2023/06/03 03:03:51;;;;;;;4.90;2.00;;;17.10;71.70;;;;;;5117041;27;47122;-67
2023/06/03 03:06:19;;;;;;;9.48;2.45;;;17.10;72.20;;;;;;5126172;27;45375;-69
2023/06/03 03:08:48;;;;;;;7.10;2.13;;;17.10;72.00;;;;;;5124259;27;45379;-67
2023/06/03 03:11:14;;;;;;;12.30;2.30;;;17.10;71.30;;;;;;5125935;27;45560;-67
2023/06/03 03:13:41;;;;;;;4.80;1.75;;;17.10;71.60;;;;;;5122350;27;46545;-67
2023/06/03 03:16:08;;;;;;;7.35;2.38;;;17.10;71.90;;;;;;5121262;27;45505;-68
2023/06/03 03:18:35;;;;;;;8.05;2.22;;;17.10;71.40;;;;;;5124032;27;45422;-67
2023/06/03 03:21:02;;;;;;;8.25;1.83;;;17.10;71.00;;;;;;5117860;27;45442;-67
2023/06/03 03:23:30;;;;;;;5.97;2.22;;;17.10;71.00;;;;;;5120202;27;45716;-68
2023/06/03 03:26:00;;;;;;;3.38;1.77;;;17.10;71.00;;;;;;5119881;27;45373;-67
2023/06/03 03:28:27;;;;;;;4.60;1.70;;;17.10;71.00;;;;;;5119160;27;45530;-67
2023/06/03 03:30:55;;;;;;;8.63;2.00;;;17.10;70.80;;;;;;5123971;27;45423;-67
2023/06/03 03:33:22;;;;;;;2.90;1.80;;;17.10;70.90;;;;;;5122635;27;47296;-67
2023/06/03 03:35:49;;;;;;;7.57;2.20;;;17.10;70.80;;;;;;5124864;27;45381;-67
2023/06/03 03:38:16;;;;;;;6.22;1.95;;;17.00;70.00;;;;;;5124878;27;45327;-67
2023/06/03 03:40:43;;;;;;;2.70;1.42;;;17.00;70.70;;;;;;5115296;27;45498;-66
2023/06/03 03:43:16;;;;;;;3.85;1.73;;;17.00;70.00;;;;;;5117435;27;47441;-67
2023/06/03 03:45:43;;;;;;;4.47;2.10;;;17.00;70.30;;;;;;5125915;27;45328;-67
2023/06/03 03:48:14;;;;;;;4.88;2.13;;;17.00;70.40;;;;;;5117121;27;45447;-67
2023/06/03 03:50:43;;;;;;;3.80;1.80;;;17.00;70.00;;;;;;5115306;27;45415;-67
2023/06/03 03:53:11;;;;;;;7.57;2.20;;;16.90;70.00;;;;;;5118404;27;45369;-67
2023/06/03 03:55:42;;;;;;;6.15;1.80;;;17.00;69.50;;;;;;5125806;27;45323;-67
2023/06/03 03:58:25;;;;;;;5.22;1.75;;;17.00;69.40;;;;;;5117821;27;45708;-67
2023/06/03 04:00:52;;;;;;;8.35;2.17;;;17.00;69.60;;;;;;5115391;27;45257;-67
2023/06/03 04:03:19;;;;;;;8.50;2.10;;;17.00;69.50;;;;;;5113598;27;47843;-68
2023/06/03 04:05:47;;;;;;;5.20;1.85;;;17.00;69.60;;;;;;5121538;27;45368;-67
2023/06/03 04:08:29;;;;;;;5.60;2.08;;;17.00;69.40;;;;;;5123294;27;45389;-67
2023/06/03 04:10:59;;;;;;;5.93;1.80;;;16.90;69.40;;;;;;5116586;27;45303;-67
2023/06/03 04:13:27;;;;;;;4.32;1.92;;;16.90;69.60;;;;;;5117115;27;46096;-67
2023/06/03 04:15:53;;;;;;;10.90;2.20;;;17.00;69.10;;;;;;5123623;27;45373;-66
2023/06/03 04:18:20;;;;;;;3.30;1.83;;;17.00;69.20;;;;;;5116277;27;45409;-66
2023/06/03 04:20:49;;;;;;;5.45;2.10;;;17.00;68.80;;;;;;5125078;27;45419;-69
2023/06/03 04:23:19;;;;;;;3.58;1.55;;;17.00;68.30;;;;;;5123822;27;46562;-68
2023/06/03 04:25:46;;;;;;;8.82;1.95;;;17.00;68.70;;;;;;5116070;27;45986;-67
2023/06/03 04:28:13;;;;;;;5.25;1.92;;;17.00;68.60;;;;;;5122633;27;45663;-66
2023/06/03 04:30:41;;;;;;;4.57;1.80;;;17.00;68.00;;;;;;5123120;27;45477;-67
2023/06/03 04:33:08;;;;;;;3.33;1.83;;;17.00;68.60;;;;;;5123988;27;49081;-67
2023/06/03 04:35:35;;;;;;;6.18;1.90;;;17.10;68.00;;;;;;5121693;27;45321;-67
2023/06/03 04:38:02;;;;;;;5.18;1.75;;;17.00;68.00;;;;;;5116647;27;45286;-66
2023/06/03 04:40:28;;;;;;;3.40;1.40;;;17.00;67.50;;;;;;5120081;27;45561;-67
2023/06/03 04:42:55;;;;;;;6.15;1.70;;;17.00;67.60;;;;;;5121007;27;47418;-67
2023/06/03 04:45:23;;;;;;;5.28;1.98;;;17.00;67.80;;;;;;5124254;27;45479;-67
2023/06/03 04:47:52;;;;;;;5.43;2.20;;;17.00;67.20;;;;;;5107925;27;45372;-68
2023/06/03 04:50:20;;;;;;;6.88;1.60;;;17.10;67.50;;;;;;5116624;27;45612;-67
2023/06/03 04:52:48;;;;;;;4.38;1.92;;;17.10;67.00;;;;;;5118733;27;48212;-67
2023/06/03 04:55:15;;;;;;;3.03;1.70;;;17.10;66.90;;;;;;5116943;27;45274;-68
2023/06/03 04:57:45;;;;;;;4.85;1.35;;;17.10;67.00;;;;;;5124208;27;45277;-66
2023/06/03 05:00:16;;;;;;;3.25;1.60;;;17.10;67.00;;;;;;5108477;27;45632;-67
2023/06/03 05:02:44;;;;;;;5.72;1.80;;;17.10;66.90;;;;;;5116280;27;45721;-67
2023/06/03 05:05:12;;;;;;;5.90;1.90;;;17.20;66.60;;;;;;5122708;27;45433;-67
2023/06/03 05:07:39;;;;;;;3.78;1.55;;;17.20;66.10;;;;;;5122969;27;45533;-67
2023/06/03 05:10:07;;;;;;;5.05;1.80;;;17.20;66.30;;;;;;5118039;27;45554;-67
2023/06/03 05:12:34;;;;;;;2.65;1.40;;;17.20;65.70;;;;;;5119057;27;46679;-67
2023/06/03 05:15:01;;;;;;;3.28;1.50;;;17.20;65.70;;;;;;5118363;27;45350;-67
2023/06/03 05:17:27;;;;;;;3.92;1.33;;;17.20;65.20;;;;;;5116336;27;45389;-67
2023/06/03 05:19:54;;;;;;;3.35;1.50;;;17.20;65.20;;;;;;5120525;27;45618;-68
2023/06/03 05:22:22;;;;;;;2.33;1.52;;;17.20;64.70;;;;;;5122560;27;46628;-67
2023/06/03 05:24:49;;;;;;;3.88;1.50;;;17.30;65.20;;;;;;5116191;27;45367;-67
2023/06/03 05:27:16;;;;;;;3.78;1.50;;;17.30;63.80;;;;;;5124205;27;45322;-67
2023/06/03 05:29:42;;;;;;;2.78;1.33;;;17.30;64.10;;;;;;5121614;27;45481;-67
2023/06/03 05:32:09;;;;;;;4.88;1.48;;;17.30;64.10;;;;;;5121629;27;47668;-67
2023/06/03 05:34:36;;;;;;;10.05;1.58;;;17.30;64.50;;;;;;5122543;27;45381;-68
2023/06/03 05:37:03;;;;;;;3.88;1.38;;;17.30;63.30;;;;;;5122390;27;45356;-67
2023/06/03 05:39:31;;;;;;;4.00;1.42;;;17.30;62.90;;;;;;5117097;27;45443;-67
2023/06/03 05:41:58;;;;;;;3.30;1.75;;;17.30;63.10;;;;;;5121423;27;47677;-68
2023/06/03 05:44:25;;;;;;;5.28;1.30;;;17.30;63.10;;;;;;5120677;27;45224;-67
2023/06/03 05:46:51;;;;;;;7.03;1.20;;;17.40;62.80;;;;;;5123409;27;45233;-66
2023/06/03 05:49:18;;;;;;;2.90;1.50;;;17.40;62.60;;;;;;5122635;27;45624;-69
2023/06/03 05:51:45;;;;;;;3.55;1.30;;;17.30;61.20;;;;;;5115539;27;46314;-67
2023/06/03 05:54:13;;;;;;;6.30;1.60;;;17.40;62.10;;;;;;5124226;27;45473;-67
2023/06/03 05:56:41;;;;;;;3.05;1.17;;;17.40;62.30;;;;;;5106440;27;45268;-67
2023/06/03 05:59:08;;;;;;;4.85;1.20;;;17.40;62.70;;;;;;5108587;27;45250;-67
2023/06/03 06:01:35;;;;;;;3.05;1.05;;;17.50;61.30;;;;;;5120896;27;46263;-67
2023/06/03 06:04:02;;;;;;;2.22;1.15;;;17.50;61.40;;;;;;5123794;27;45295;-67
2023/06/03 06:06:28;;;;;;;6.72;1.27;;;17.50;61.20;;;;;;5121823;27;45334;-68
2023/06/03 06:08:55;;;;;;;2.85;1.25;;;17.60;61.10;;;;;;5116389;27;45375;-68
2023/06/03 06:11:22;;;;;;;1.90;0.85;;;17.50;60.00;;;;;;5114393;27;46319;-70
2023/06/03 06:13:50;;;;;;;2.10;1.15;;;17.50;60.10;;;;;;5124436;27;45464;-71
2023/06/03 06:16:17;;;;;;;3.92;0.95;;;17.50;60.80;;;;;;5115271;27;45324;-69
2023/06/03 06:18:44;;;;;;;3.42;0.80;;;17.50;61.20;;;;;;5115808;27;45521;-71
2023/06/03 06:21:10;;;;;;;2.45;1.10;;;17.20;67.90;;;;;;5116196;27;46600;-69
2023/06/03 06:23:37;;;;;;;3.25;1.30;;;17.30;65.80;;;;;;5115240;27;45361;-68
2023/06/03 06:26:04;;;;;;;2.83;1.08;;;17.20;54.00;;;;;;5122130;27;45378;-69
2023/06/03 06:28:32;;;;;;;3.15;1.10;;;16.00;58.20;;;;;;5113912;27;45291;-68
2023/06/03 06:31:04;;;;;;;1.05;0.80;;;15.70;57.70;;;;;;5121762;27;47687;-68
2023/06/03 06:33:33;;;;;;;2.03;1.00;;;16.40;70.70;;;;;;5121331;27;45378;-66
2023/06/03 06:36:02;;;;;;;11.07;1.27;;;16.10;56.90;;;;;;5114414;27;45473;-66
2023/06/03 06:38:29;;;;;;;2.50;1.02;;;15.60;57.90;;;;;;5121257;27;45277;-67
2023/06/03 06:40:56;;;;;;;2.28;1.10;;;16.40;63.10;;;;;;5110916;27;46058;-67
2023/06/03 06:43:25;;;;;;;6.25;0.82;;;17.00;60.80;;;;;;5116640;27;45543;-67
2023/06/03 06:45:55;;;;;;;8.63;1.17;;;17.30;60.00;;;;;;5114032;27;45304;-68
2023/06/03 06:48:23;;;;;;;4.82;0.88;;;17.50;58.90;;;;;;5123320;27;45361;-69
2023/06/03 06:50:53;;;;;;;2.70;0.93;;;17.60;59.10;;;;;;5118173;27;47179;-68
2023/06/03 06:53:21;;;;;;;3.88;0.93;;;17.70;59.60;;;;;;5111349;27;45323;-69
2023/06/03 06:55:50;;;;;;;1.50;0.82;;;17.70;57.50;;;;;;5114642;27;45576;-69
2023/06/03 06:58:17;;;;;;;1.90;0.90;;;17.70;58.50;;;;;;5117430;27;45470;-68
2023/06/03 07:00:44;;;;;;;1.48;0.85;;;17.90;58.90;;;;;;5121947;27;47516;-67
2023/06/03 07:03:15;;;;;;;4.45;1.10;;;17.90;57.50;;;;;;5107288;27;45480;-67
2023/06/03 07:05:43;;;;;;;2.15;1.00;;;17.90;58.50;;;;;;5121987;27;45436;-68
2023/06/03 07:08:11;;;;;;;2.97;0.90;;;17.90;56.50;;;;;;5123168;27;45467;-67
2023/06/03 07:10:38;;;;;;;6.65;1.05;;;17.90;57.70;;;;;;5113650;27;47590;-69
2023/06/03 07:13:06;;;;;;;4.80;1.17;;;18.00;56.60;;;;;;5121614;27;45417;-67
2023/06/03 07:15:33;;;;;;;2.83;1.00;;;18.00;57.20;;;;;;5119889;27;45369;-67
2023/06/03 07:18:00;;;;;;;3.85;1.20;;;18.10;56.80;;;;;;5114680;27;45506;-68
2023/06/03 07:20:32;;;;;;;5.35;1.02;;;18.20;56.90;;;;;;5121154;27;45422;-67
2023/06/03 07:23:00;;;;;;;2.70;0.90;;;18.20;57.40;;;;;;5114686;27;45472;-67
2023/06/03 07:25:36;;;;;;;2.55;0.70;;;18.30;56.50;;;;;;5123363;27;45314;-67
2023/06/03 07:28:05;;;;;;;6.55;1.27;;;18.40;57.40;;;;;;5120482;27;45397;-69
2023/06/03 07:30:36;;;;;;;2.58;1.02;;;18.40;58.50;;;;;;5116748;27;46593;-68
2023/06/03 07:33:04;;;;;;;2.53;0.80;;;18.50;58.30;;;;;;5116489;27;46153;-68
2023/06/03 07:35:31;;;;;;;2.42;1.00;;;18.60;59.00;;;;;;5115577;27;45497;-68
2023/06/03 07:37:58;;;;;;;8.07;1.13;;;18.60;56.70;;;;;;5114392;27;45439;-68
2023/06/03 07:40:39;;;;;;;4.18;1.20;;;18.40;56.20;;;;;;5113299;27;47427;-67
2023/06/03 07:43:06;;;;;;;6.35;0.80;;;18.40;54.30;;;;;;5113170;27;45414;-68
2023/06/03 07:45:34;;;;;;;3.95;1.23;;;18.30;56.80;;;;;;5115671;27;45449;-69
2023/06/03 07:48:02;;;;;;;2.72;0.98;;;18.40;56.90;;;;;;5119002;27;45423;-69
2023/06/03 07:50:29;;;;;;;4.97;1.00;;;18.40;55.80;;;;;;5119344;27;46624;-67
2023/06/03 07:53:00;;;;;;;2.08;0.95;;;18.40;55.80;;;;;;5118966;27;45188;-69
2023/06/03 07:55:34;;;;;;;3.20;1.10;;;18.40;56.00;;;;;;5122321;27;45490;-68
2023/06/03 07:58:01;;;;;;;4.60;1.05;;;18.40;56.40;;;;;;5113367;27;45351;-67
2023/06/03 08:00:28;;;;;;;2.10;1.05;;;18.50;55.50;;;;;;5121656;27;46619;-67
2023/06/03 08:02:54;;;;;;;3.40;1.60;;;18.50;55.90;;;;;;5114843;27;45497;-67
2023/06/03 08:05:34;;;;;;;3.47;1.55;;;18.40;55.90;;;;;;5123175;27;45303;-67
2023/06/03 08:08:03;;;;;;;2.28;1.23;;;18.30;56.70;;;;;;5125943;27;45338;-69
2023/06/03 08:10:33;;;;;;;4.45;1.20;;;18.30;56.50;;;;;;5116806;27;46281;-67
2023/06/03 08:13:02;;;;;;;8.07;1.67;;;18.40;56.20;;;;;;5116065;27;45376;-67
2023/06/03 08:15:31;;;;;;;5.13;1.05;;;18.20;56.60;;;;;;5113877;27;45516;-68
2023/06/03 08:17:58;;;;;;;3.85;1.10;;;18.30;57.00;;;;;;5110911;27;45298;-67
2023/06/03 08:20:26;;;;;;;3.60;1.00;;;18.30;54.90;;;;;;5119861;27;47345;-67
2023/06/03 08:22:54;;;;;;;2.38;1.00;;;18.30;55.70;;;;;;5116261;27;45972;-67
2023/06/03 08:25:21;;;;;;;5.05;1.10;;;18.30;55.10;;;;;;5118675;27;45229;-69
2023/06/03 08:27:50;;;;;;;1.42;1.05;;;18.40;56.00;;;;;;5125459;27;45422;-67
2023/06/03 08:30:17;;;;;;;3.78;1.10;;;18.40;55.60;;;;;;5116847;27;46326;-67
2023/06/03 08:32:45;;;;;;;2.80;1.10;;;18.40;55.50;;;;;;5117023;27;45438;-67
2023/06/03 08:35:13;;;;;;;6.28;2.08;;;18.50;55.60;;;;;;5123250;27;45293;-68
2023/06/03 08:37:40;;;;;;;3.60;1.20;;;18.50;55.30;;;;;;5120292;27;45270;-67
2023/06/03 08:40:09;;;;;;;1.65;0.90;;;18.50;57.30;;;;;;5109882;27;48026;-68
2023/06/03 08:42:41;;;;;;;5.30;1.02;;;18.50;56.10;;;;;;5117271;27;45766;-68
2023/06/03 08:45:11;;;;;;;2.03;0.95;;;18.60;55.70;;;;;;5111705;27;45394;-68
2023/06/03 08:47:52;;;;;;;4.88;1.08;;;18.60;56.50;;;;;;5122084;27;45525;-67
2023/06/03 08:50:22;;;;;;;1.45;0.75;;;18.70;55.10;;;;;;5118992;27;46287;-69
2023/06/03 08:52:52;;;;;;;3.65;1.02;;;18.60;54.70;;;;;;5114304;27;45676;-67
2023/06/03 08:55:20;;;;;;;4.57;1.08;;;18.70;55.50;;;;;;5125052;27;45256;-68
2023/06/03 08:57:54;;;;;;;5.00;1.00;;;18.80;55.90;;;;;;5116110;27;45565;-67
2023/06/03 09:00:26;;;;;;;2.40;0.90;;;18.90;55.60;;;;;;5121832;27;46187;-67
2023/06/03 09:02:53;;;;;;;7.97;1.02;;;18.80;54.40;;;;;;5122729;27;45397;-68
2023/06/03 09:05:20;;;;;;;3.25;0.98;;;18.80;55.50;;;;;;5116459;27;45336;-67
2023/06/03 09:07:47;;;;;;;2.88;0.95;;;18.70;54.80;;;;;;5118733;27;45267;-67
2023/06/03 09:10:16;;;;;;;4.13;1.02;;;18.70;54.40;;;;;;5108627;27;45289;-67
2023/06/03 09:12:44;;;;;;;3.30;1.10;;;18.70;55.20;;;;;;5115883;27;45383;-67
2023/06/03 09:15:14;;;;;;;4.50;1.13;;;18.70;55.00;;;;;;5115871;27;45278;-67
2023/06/03 09:17:42;;;;;;;2.63;1.00;;;18.70;56.20;;;;;;5122428;27;45366;-67
2023/06/03 09:20:10;;;;;;;5.55;1.05;;;18.80;57.30;;;;;;5115923;27;46371;-67
2023/06/03 09:22:38;;;;;;;2.70;0.90;;;18.90;53.20;;;;;;5115970;27;46105;-68
2023/06/03 09:25:05;;;;;;;1.50;0.93;;;18.90;53.10;;;;;;5116085;27;45244;-67
2023/06/03 09:27:33;;;;;;;2.00;1.05;;;18.90;53.10;;;;;;5124214;27;45543;-67
2023/06/03 09:29:59;;;;;;;3.28;0.90;;;18.90;55.00;;;;;;5118989;27;47015;-67
2023/06/03 09:32:26;;;;;;;2.15;0.93;;;19.00;54.00;;;;;;5115802;27;45277;-68
2023/06/03 09:34:55;;;;;;;1.52;0.70;;;19.10;55.10;;;;;;5124513;27;45524;-67
2023/06/03 09:37:22;;;;;;;3.38;1.10;;;19.10;55.00;;;;;;5115462;27;45343;-68
2023/06/03 09:39:49;;;;;;;2.70;1.05;;;19.10;53.30;;;;;;5113289;27;47623;-67
2023/06/03 09:42:16;;;;;;;3.67;1.30;;;19.10;53.30;;;;;;5115196;27;45265;-68
2023/06/03 09:44:45;;;;;;;2.75;1.00;;;19.00;53.70;;;;;;5120895;27;45277;-67
2023/06/03 09:47:13;;;;;;;1.30;0.90;;;19.10;55.90;;;;;;5116212;27;45458;-68
2023/06/03 09:49:40;;;;;;;4.13;1.23;;;19.00;54.40;;;;;;5111917;27;46522;-66
2023/06/03 09:52:10;;;;;;;4.32;0.95;;;19.10;54.80;;;;;;5117714;27;45430;-67
2023/06/03 09:54:37;;;;;;;4.40;1.15;;;19.10;53.80;;;;;;5122868;27;45493;-67
2023/06/03 09:57:11;;;;;;;2.22;0.82;;;19.10;54.50;;;;;;5115672;27;45455;-68
2023/06/03 09:59:39;;;;;;;3.03;1.00;;;19.10;56.60;;;;;;5114537;27;46534;-67
2023/06/03 10:02:11;;;;;;;2.58;1.00;;;19.20;55.30;;;;;;5114892;27;45445;-68
2023/06/03 10:04:40;;;;;;;5.45;1.42;;;19.20;54.70;;;;;;5112736;27;45366;-68
2023/06/03 10:07:13;;;;;;;2.53;1.10;;;19.20;53.40;;;;;;5110517;27;45348;-67
2023/06/03 10:09:44;;;;;;;3.72;1.20;;;19.10;53.30;;;;;;5120113;27;47302;-67
2023/06/03 10:12:12;;;;;;;1.63;0.90;;;19.20;54.00;;;;;;5108364;27;45299;-68
2023/06/03 10:14:45;;;;;;;1.95;0.73;;;19.30;56.20;;;;;;5121779;27;45498;-68
2023/06/03 10:17:14;;;;;;;1.40;0.90;;;19.30;52.90;;;;;;5115091;27;45308;-68
2023/06/03 10:19:42;;;;;;;1.40;0.80;;;19.30;54.10;;;;;;5116207;27;45334;-68
2023/06/03 10:22:12;;;;;;;1.80;0.80;;;19.20;53.80;;;;;;5110254;27;45292;-67
2023/06/03 10:24:42;;;;;;;3.00;1.10;;;19.30;53.50;;;;;;5122926;27;45356;-67
2023/06/03 10:27:10;;;;;;;2.90;1.40;;;19.30;51.00;;;;;;5123067;27;45190;-68
2023/06/03 10:29:37;;;;;;;4.45;1.52;;;19.20;53.50;;;;;;5110206;27;46085;-67
2023/06/03 10:32:06;;;;;;;1.10;0.77;;;19.10;53.60;;;;;;5114918;27;45314;-68
2023/06/03 10:34:37;;;;;;;2.83;1.42;;;19.10;52.70;;;;;;5114583;27;45480;-67
2023/06/03 10:37:05;;;;;;;2.42;1.10;;;18.90;53.10;;;;;;5123130;27;45346;-68
2023/06/03 10:39:34;;;;;;;4.05;1.15;;;18.90;53.10;;;;;;5113447;27;46583;-67
2023/06/03 10:42:03;;;;;;;3.42;1.10;;;19.00;53.20;;;;;;5116801;27;45364;-67
2023/06/03 10:44:31;;;;;;;2.97;1.10;;;19.00;53.30;;;;;;5123647;27;45403;-68
2023/06/03 10:47:02;;;;;;;4.85;1.02;;;19.10;53.30;;;;;;5122964;27;45403;-68
2023/06/03 10:49:34;;;;;;;5.28;1.23;;;19.20;53.40;;;;;;5119551;27;45318;-68
2023/06/03 10:52:14;;;;;;;5.15;1.15;;;19.10;50.10;;;;;;5115727;27;46266;-68
2023/06/03 10:54:55;;;;;;;1.60;0.93;;;19.00;51.60;;;;;;5111040;27;45324;-68
2023/06/03 10:57:26;;;;;;;4.40;0.73;;;19.10;53.90;;;;;;5113918;27;45595;-69
2023/06/03 10:59:53;;;;;;;3.97;0.95;;;19.30;53.50;;;;;;5123202;27;47631;-68
2023/06/03 11:02:20;;;;;;;5.75;1.00;;;19.30;52.10;;;;;;5121913;27;45304;-68
2023/06/03 11:04:47;;;;;;;1.95;0.98;;;19.30;53.70;;;;;;5119564;27;45334;-68
2023/06/03 11:07:44;;;;;;;4.80;1.00;;;19.40;53.60;;;;;;5119118;27;45407;-68
2023/06/03 11:10:43;;;;;;;4.03;0.90;;;19.40;54.30;;;;;;5116488;27;46265;-68
2023/06/03 11:13:31;;;;;;;3.05;1.27;;;19.40;56.20;;;;;;5114829;27;45279;-69
2023/06/03 11:15:59;;;;;;;2.28;1.15;;;19.10;54.90;;;;;;5118619;27;45330;-68
2023/06/03 11:18:26;;;;;;;3.03;1.15;;;18.90;56.00;;;;;;5116557;27;45686;-68
2023/06/03 11:20:53;;;;;;;1.40;0.90;;;18.80;55.60;;;;;;5113839;27;47527;-68
2023/06/03 11:23:41;;;;;;;2.05;1.10;;;18.80;55.30;;;;;;5122597;27;46472;-68
2023/06/03 11:26:32;;;;;;;1.95;0.98;;;18.90;54.40;;;;;;5121873;27;45333;-68
2023/06/03 11:28:59;;;;;;;1.25;0.90;;;19.10;53.30;;;;;;5118145;27;45765;-68
2023/06/03 11:31:28;;;;;;;4.00;0.90;;;19.10;52.30;;;;;;5116318;27;47186;-69
2023/06/03 11:34:20;;;;;;;5.57;1.10;;;19.20;52.30;;;;;;5114421;27;45338;-68
2023/06/03 11:36:47;;;;;;;6.53;1.10;;;19.30;51.20;;;;;;5117871;27;45504;-68
2023/06/03 11:39:15;;;;;;;1.70;1.10;;;19.30;52.10;;;;;;5119687;27;45510;-68
2023/06/03 11:42:18;;;;;;;2.88;1.55;;;19.20;54.60;;;;;;5117584;27;47517;-68
2023/06/03 11:44:46;;;;;;;3.85;1.00;;;19.20;52.60;;;;;;5119451;27;45518;-68
2023/06/03 11:47:12;;;;;;;1.40;0.93;;;19.20;53.40;;;;;;5117419;27;45552;-68
2023/06/03 11:49:40;;;;;;;4.68;1.05;;;19.30;55.50;;;;;;5118334;27;45292;-68
2023/06/03 11:52:08;;;;;;;1.60;0.80;;;19.40;53.60;;;;;;5115548;27;46592;-69
2023/06/03 11:54:35;;;;;;;3.45;0.98;;;19.50;53.70;;;;;;5114942;27;45317;-68
2023/06/03 11:57:03;;;;;;;3.10;1.02;;;19.40;53.60;;;;;;5113357;27;45359;-69
2023/06/03 11:59:36;;;;;;;2.05;1.08;;;19.30;54.90;;;;;;5124024;27;45344;-68
2023/06/03 12:02:05;;;;;;;3.28;0.98;;;19.40;53.80;;;;;;5119357;27;45291;-68
2023/06/03 12:04:33;;;;;;;2.67;1.00;;;19.50;52.10;;;;;;5122869;27;45564;-69
2023/06/03 12:07:01;;;;;;;3.72;1.05;;;19.40;53.70;;;;;;5117279;27;45365;-68
2023/06/03 12:09:29;;;;;;;4.40;1.50;;;19.40;49.90;;;;;;5125034;27;45576;-68
2023/06/03 12:11:56;;;;;;;3.33;1.02;;;19.10;53.30;;;;;;5117899;27;48328;-68
2023/06/03 12:14:28;;;;;;;2.78;0.95;;;19.30;52.50;;;;;;5117826;27;45324;-68
2023/06/03 12:16:57;;;;;;;4.22;1.13;;;19.50;52.70;;;;;;5118533;27;45346;-68
2023/06/03 12:19:25;;;;;;;3.47;0.93;;;19.40;53.40;;;;;;5120466;27;45359;-68
2023/06/03 12:21:57;;;;;;;2.50;1.08;;;19.40;51.10;;;;;;5117269;27;46676;-68
2023/06/03 12:24:29;;;;;;;2.03;0.90;;;19.40;52.90;;;;;;5108246;27;45366;-68
2023/06/03 12:26:56;;;;;;;2.17;1.00;;;19.40;53.60;;;;;;5118881;27;45395;-68
2023/06/03 12:29:24;;;;;;;3.47;1.10;;;19.40;53.40;;;;;;5127689;27;45386;-68
2023/06/03 12:32:01;;;;;;;1.63;0.95;;;19.50;50.80;;;;;;5125422;27;46187;-68
2023/06/03 12:34:34;;;;;;;3.70;1.10;;;19.60;53.50;;;;;;5125437;27;45288;-68
2023/06/03 12:37:01;;;;;;;4.72;1.10;;;19.40;51.70;;;;;;5124193;27;45330;-69
2023/06/03 12:39:46;;;;;;;2.35;0.98;;;19.30;48.80;;;;;;5114977;27;45213;-68
2023/06/03 12:42:13;;;;;;;1.52;1.02;;;19.40;53.70;;;;;;5111315;27;46560;-69
2023/06/03 12:44:45;;;;;;;2.47;0.90;;;19.40;53.90;;;;;;5116613;27;45290;-69
2023/06/03 12:47:12;;;;;;;2.75;0.80;;;19.30;54.70;;;;;;5116243;27;45311;-68
2023/06/03 12:49:40;;;;;;;1.63;0.90;;;19.50;52.50;;;;;;5124297;27;45379;-69
2023/06/03 12:52:11;;;;;;;3.80;0.80;;;19.30;52.60;;;;;;5114315;27;45300;-67
2023/06/03 12:54:38;;;;;;;5.28;1.00;;;19.30;51.30;;;;;;5116470;27;45396;-68